Date,TemperatureHighF,TemperatureAvgF,TemperatureLowF,DewpointHighF,DewpointAvgF,DewpointLowF,HumidityHigh,HumidityAvg,HumidityLow,PressureMaxIn,PressureMinIn,WindSpeedMaxMPH,WindSpeedAvgMPH,GustSpeedMaxMPH,PrecipitationSumIn
2013-1-1,24.6,19.3,10.8,4.8,0.7,-6.5,45,44,42,29.72,29.57,0,-999,0,0.00
2013-1-2,13.3,10.6,9.1,-4.2,-6.6,-8.0,45,45,45,29.63,29.60,0,-999,0,0.00
2013-1-4,42.1,35.7,30.7,18.9,13.8,9.7,41,40,39,29.72,29.63,0,-999,0,0.00
2013-1-5,42.6,35.3,28.8,19.4,13.9,8.6,43,41,39,29.66,29.45,0,-999,0,0.00
2013-1-6,39.0,28.9,22.5,16.2,8.4,3.2,45,42,39,29.75,29.54,0,-999,0,0.00
2013-1-7,50.0,35.1,22.5,24.6,13.1,3.4,43,40,37,29.69,29.45,0,-999,0,0.00
2013-1-8,54.0,41.5,30.7,27.5,18.2,9.9,41,39,36,29.57,29.39,0,-999,0,0.00
2013-1-9,55.0,40.9,27.5,28.6,18.6,10.4,53,41,36,29.78,29.57,0,-999,0,0.00
2013-1-10,52.9,45.2,39.2,50.5,32.9,17.6,92,64,38,29.75,29.16,0,-999,0,0.21
2013-1-11,60.3,54.7,49.3,48.7,33.5,27.0,93,47,35,29.19,29.04,0,-999,0,0.13
2013-1-12,55.2,34.0,23.5,28.8,12.6,3.7,49,41,36,29.48,29.13,0,-999,0,0.00
2013-1-13,25.9,20.0,10.2,5.9,1.1,-6.9,45,43,42,29.72,29.42,0,-999,0,0.00
2013-1-14,28.6,18.4,5.2,7.9,-0.3,-11.6,45,43,41,29.87,29.75,0,-999,0,0.00
2013-1-15,27.7,13.5,5.9,7.0,-4.3,-10.8,47,44,41,29.78,29.54,0,-999,0,0.00
2013-1-16,40.6,25.3,11.7,17.6,5.4,-5.8,45,42,39,29.57,29.39,0,-999,0,0.00
2013-1-17,43.7,34.2,27.3,19.6,13.1,7.2,50,41,38,29.84,29.54,0,-999,0,0.00
2013-1-18,54.3,41.3,30.2,27.9,18.0,9.3,41,39,36,29.81,29.42,0,-999,0,0.00
2013-1-19,59.7,47.1,40.3,32.0,22.5,17.2,39,38,35,29.60,29.36,0,-999,0,0.00
2013-1-20,40.8,30.5,23.2,17.6,9.5,3.6,42,41,39,29.75,29.60,0,-999,0,0.00
2013-1-21,25.0,18.7,12.4,5.2,0.0,-5.1,45,43,42,29.78,29.72,0,-999,0,0.00
2013-1-22,31.5,21.0,13.3,10.4,1.8,-4.5,44,43,41,29.78,29.63,0,-999,0,0.00
2013-1-23,48.2,27.4,12.0,23.2,7.0,-5.3,45,42,37,29.75,29.51,0,-999,0,0.00
2013-1-24,28.6,22.0,11.7,7.9,2.6,-6.0,44,42,41,29.84,29.51,0,-999,0,0.00
2013-1-25,46.0,32.7,23.4,21.9,11.2,3.6,42,40,38,29.57,29.48,0,-999,0,0.00
2013-1-26,52.5,35.7,24.8,26.2,13.6,5.0,42,40,36,29.63,29.48,0,-999,0,0.00
2013-1-27,62.1,50.7,38.7,33.3,26.1,16.9,44,38,34,29.48,29.16,0,-999,0,0.12
2013-1-28,73.6,64.9,57.4,41.5,37.0,32.7,44,36,31,29.25,29.10,0,-999,0,0.00
2013-1-29,66.6,53.7,37.6,48.7,37.3,25.0,86,57,34,29.10,28.86,0,-999,0,1.62
2013-1-30,37.9,29.3,24.3,27.9,11.2,4.5,71,47,41,29.34,28.86,0,-999,0,0.25
2013-1-31,27.0,20.0,9.1,6.6,1.0,-8.3,44,43,42,29.81,29.31,0,-999,0,0.00